createdAt,value
2018-06-10T03:01:05.690Z,0.00
2018-06-10T03:02:07.953Z,0.00
2018-06-10T03:03:07.310Z,0.00
2018-06-10T03:04:07.130Z,0.00
2018-06-10T03:05:04.462Z,0.00
2018-06-10T03:06:04.206Z,0.00
2018-06-10T03:07:04.325Z,0.00
2018-06-10T03:08:04.530Z,0.00
2018-06-10T03:09:04.717Z,0.00
2018-06-10T03:10:04.927Z,0.00
2018-06-10T03:11:05.129Z,0.00
2018-06-10T03:12:05.234Z,0.00
2018-06-10T03:13:05.332Z,0.00
2018-06-10T03:14:05.498Z,5.63
2018-06-10T03:15:05.745Z,5.63
2018-06-10T03:16:06.044Z,5.63
2018-06-10T03:17:06.028Z,5.63
2018-06-10T03:18:06.211Z,5.63
2018-06-10T03:19:06.503Z,5.63
2018-06-10T03:20:06.578Z,5.63
2018-06-10T03:21:06.879Z,5.63
2018-06-10T03:22:07.070Z,5.63
2018-06-10T03:23:07.189Z,5.63
2018-06-10T03:24:07.292Z,5.63
2018-06-10T03:25:07.551Z,11.25
2018-06-10T03:26:07.684Z,11.25
2018-06-10T03:27:07.926Z,11.25
2018-06-10T03:28:08.036Z,11.25
2018-06-10T03:29:08.359Z,11.25
2018-06-10T03:30:08.439Z,11.25
2018-06-10T03:31:08.604Z,11.25
2018-06-10T03:32:08.680Z,16.88
2018-06-10T03:33:08.871Z,16.88
2018-06-10T03:34:09.107Z,16.88
2018-06-10T03:35:09.255Z,22.50
2018-06-10T03:36:09.314Z,22.50
2018-06-10T03:37:09.537Z,22.50
2018-06-10T03:38:09.683Z,22.50
2018-06-10T03:39:09.934Z,22.50
2018-06-10T03:40:10.090Z,22.50
2018-06-10T03:41:10.268Z,22.50
2018-06-10T03:42:10.378Z,22.50
2018-06-10T03:43:10.644Z,22.50
2018-06-10T03:44:10.833Z,22.50
2018-06-10T03:45:11.011Z,22.50
2018-06-10T03:46:11.194Z,22.50
2018-06-10T03:47:11.369Z,22.50
2018-06-10T03:48:11.578Z,22.50
2018-06-10T03:49:11.719Z,22.50
2018-06-10T03:50:11.884Z,22.50
2018-06-10T03:51:12.061Z,22.50
2018-06-10T03:52:12.183Z,28.13
2018-06-10T03:53:12.328Z,28.13
2018-06-10T03:54:12.425Z,28.13
2018-06-10T03:55:12.733Z,28.13
2018-06-10T03:56:12.907Z,28.13
2018-06-10T03:57:12.992Z,28.13
2018-06-10T03:58:13.279Z,28.13
2018-06-10T03:59:13.307Z,28.13
2018-06-10T04:00:13.492Z,28.13
2018-06-10T04:01:13.704Z,33.75
2018-06-10T04:02:13.912Z,33.75
2018-06-10T04:03:14.081Z,33.75
2018-06-10T04:04:14.190Z,39.38
2018-06-10T04:05:14.420Z,39.38
2018-06-10T04:06:14.550Z,45.00
2018-06-10T04:07:14.752Z,45.00
2018-06-10T04:08:15.007Z,45.00
2018-06-10T04:09:15.074Z,45.00
2018-06-10T04:10:15.307Z,45.00
2018-06-10T04:11:15.505Z,45.00
2018-06-10T04:12:15.614Z,50.63
2018-06-10T04:13:15.722Z,50.63
2018-06-10T04:14:15.998Z,50.63
2018-06-10T04:15:16.222Z,50.63
2018-06-10T04:16:16.245Z,50.63
2018-06-10T04:17:16.459Z,50.63
2018-06-10T04:18:16.708Z,56.25
2018-06-10T04:19:16.770Z,56.25
2018-06-10T04:20:16.977Z,56.25
2018-06-10T04:21:17.175Z,50.63
2018-06-10T04:22:17.263Z,50.63
2018-06-10T04:23:17.420Z,50.63
2018-06-10T04:24:17.743Z,50.63
2018-06-10T04:25:17.857Z,50.63
2018-06-10T04:26:18.059Z,50.63
2018-06-10T04:27:18.185Z,50.63
2018-06-10T04:28:18.426Z,50.63
2018-06-10T04:29:18.578Z,50.63
2018-06-10T04:30:18.725Z,56.25
2018-06-10T04:31:18.896Z,56.25
2018-06-10T04:32:19.127Z,56.25
2018-06-10T04:33:19.289Z,56.25
2018-06-10T04:34:19.341Z,61.88
2018-06-10T04:35:19.618Z,61.88
2018-06-10T04:36:19.721Z,61.88
2018-06-10T04:37:19.938Z,61.88
2018-06-10T04:38:20.164Z,61.88
2018-06-10T04:39:20.332Z,67.50
2018-06-10T04:40:20.514Z,67.50
2018-06-10T04:41:20.663Z,67.50
2018-06-10T04:42:20.843Z,67.50
2018-06-10T04:43:21.108Z,73.13
2018-06-10T04:44:21.277Z,73.13
2018-06-10T04:45:21.371Z,78.75
2018-06-10T04:46:21.584Z,78.75
2018-06-10T04:47:21.734Z,78.75
2018-06-10T04:48:21.831Z,84.38
2018-06-10T04:49:22.143Z,84.38
2018-06-10T04:50:22.209Z,84.38
2018-06-10T04:51:22.481Z,84.38
2018-06-10T04:52:22.509Z,90.00
2018-06-10T04:53:22.791Z,90.00
2018-06-10T04:54:22.904Z,90.00
2018-06-10T04:55:23.091Z,95.63
2018-06-10T04:56:23.271Z,101.25
2018-06-10T04:57:23.495Z,101.25
2018-06-10T04:58:23.612Z,106.88
2018-06-10T04:59:23.740Z,112.50
2018-06-10T05:00:24.086Z,112.50
2018-06-10T05:01:24.159Z,118.13
2018-06-10T05:02:24.351Z,118.13
2018-06-10T05:03:24.560Z,118.13
2018-06-10T05:04:24.657Z,118.13
2018-06-10T05:05:24.831Z,123.75
2018-06-10T05:06:25.051Z,129.38
2018-06-10T05:07:25.177Z,129.38
2018-06-10T05:08:25.360Z,140.63
2018-06-10T05:09:25.447Z,146.25
2018-06-10T05:10:25.714Z,151.88
2018-06-10T05:11:25.771Z,151.88
2018-06-10T05:12:25.941Z,157.50
2018-06-10T05:13:26.154Z,157.50
2018-06-10T05:14:26.365Z,151.88
2018-06-10T05:15:26.563Z,151.88
2018-06-10T05:16:26.692Z,151.88
2018-06-10T05:17:26.942Z,151.88
2018-06-10T05:18:27.003Z,146.25
2018-06-10T05:19:27.157Z,146.25
2018-06-10T05:20:27.434Z,146.25
2018-06-10T05:21:27.533Z,146.25
2018-06-10T05:22:27.785Z,146.25
2018-06-10T05:23:27.963Z,140.63
2018-06-10T05:24:28.032Z,135.00
2018-06-10T05:25:28.150Z,129.38
2018-06-10T05:26:28.322Z,123.75
2018-06-10T05:27:28.598Z,118.13
2018-06-10T05:28:28.687Z,112.50
2018-06-10T05:29:28.885Z,106.88
2018-06-10T05:30:29.026Z,101.25
2018-06-10T05:31:29.247Z,101.25
2018-06-10T05:32:29.314Z,95.63
2018-06-10T05:33:29.546Z,90.00
2018-06-10T05:34:29.768Z,90.00
2018-06-10T05:35:29.924Z,90.00
2018-06-10T05:36:30.086Z,84.38
2018-06-10T05:37:30.289Z,84.38
2018-06-10T05:38:30.456Z,84.38
2018-06-10T05:39:30.579Z,84.38
2018-06-10T05:40:30.729Z,84.38
2018-06-10T05:41:30.865Z,84.38
2018-06-10T05:42:31.108Z,84.38
2018-06-10T05:43:31.322Z,84.38
2018-06-10T05:44:31.414Z,84.38
2018-06-10T05:45:31.657Z,84.38
2018-06-10T05:46:31.808Z,84.38
2018-06-10T05:47:31.864Z,84.38
2018-06-10T05:48:32.085Z,84.38
2018-06-10T05:49:32.327Z,84.38
2018-06-10T05:50:32.438Z,84.38
2018-06-10T05:51:32.594Z,84.38
2018-06-10T05:52:32.853Z,84.38
2018-06-10T05:53:33.025Z,84.38
2018-06-10T05:54:33.132Z,84.38
2018-06-10T05:55:33.241Z,84.38
2018-06-10T05:56:33.508Z,90.00
2018-06-10T05:57:33.670Z,90.00
2018-06-10T05:58:33.760Z,90.00
2018-06-10T05:59:33.973Z,95.63
2018-06-10T06:00:34.115Z,95.63
2018-06-10T06:01:34.327Z,101.25
2018-06-10T06:02:34.536Z,101.25
2018-06-10T06:03:34.672Z,106.88
2018-06-10T06:04:34.795Z,106.88
2018-06-10T06:05:34.927Z,112.50
2018-06-10T06:06:35.203Z,118.13
2018-06-10T06:07:35.373Z,123.75
2018-06-10T06:08:35.495Z,129.38
2018-06-10T06:09:35.692Z,140.63
2018-06-10T06:10:35.847Z,140.63
2018-06-10T06:11:36.022Z,146.25
2018-06-10T06:12:36.125Z,146.25
2018-06-10T06:13:36.386Z,151.88
2018-06-10T06:14:36.530Z,151.88
2018-06-10T06:15:36.762Z,157.50
2018-06-10T06:16:36.879Z,157.50
2018-06-10T06:17:37.113Z,163.13
2018-06-10T06:18:37.287Z,163.13
2018-06-10T06:19:37.447Z,163.13
2018-06-10T06:20:37.517Z,163.13
2018-06-10T06:21:37.822Z,157.50
2018-06-10T06:22:37.969Z,151.88
2018-06-10T06:23:38.187Z,151.88
2018-06-10T06:24:38.322Z,146.25
2018-06-10T06:25:38.411Z,146.25
2018-06-10T06:26:38.787Z,146.25
2018-06-10T06:27:38.870Z,146.25
2018-06-10T06:28:38.934Z,146.25
2018-06-10T06:29:39.224Z,146.25
2018-06-10T06:30:39.333Z,146.25
2018-06-10T06:31:39.526Z,146.25
2018-06-10T06:32:39.624Z,146.25
2018-06-10T06:33:40.025Z,146.25
2018-06-10T06:34:40.000Z,151.88
2018-06-10T06:35:40.954Z,151.88
2018-06-10T06:36:40.661Z,157.50
2018-06-10T06:37:40.509Z,157.50
2018-06-10T06:38:40.693Z,163.13
2018-06-10T06:39:40.961Z,168.75
2018-06-10T06:40:41.135Z,174.38
2018-06-10T06:41:41.282Z,180.00
2018-06-10T06:42:41.511Z,180.00
2018-06-10T06:43:41.690Z,185.63
2018-06-10T06:44:41.877Z,185.63
2018-06-10T06:45:42.078Z,191.25
2018-06-10T06:46:42.162Z,196.88
2018-06-10T06:47:42.286Z,196.88
2018-06-10T06:48:42.516Z,202.50
2018-06-10T06:49:42.590Z,208.13
2018-06-10T06:50:42.800Z,208.13
2018-06-10T06:51:42.949Z,208.13
2018-06-10T06:52:43.176Z,213.75
2018-06-10T06:53:43.341Z,213.75
2018-06-10T06:54:43.587Z,219.38
2018-06-10T06:55:43.778Z,219.38
2018-06-10T06:56:44.007Z,230.63
2018-06-10T06:57:44.185Z,236.25
2018-06-10T06:58:44.343Z,241.88
2018-06-10T06:59:44.515Z,253.13
2018-06-10T07:00:44.716Z,258.75
2018-06-10T07:01:44.829Z,264.38
2018-06-10T07:02:44.982Z,264.38
2018-06-10T07:03:45.288Z,275.63
2018-06-10T07:04:45.426Z,281.25
2018-06-10T07:05:45.585Z,292.50
2018-06-10T07:06:45.816Z,303.75
2018-06-10T07:07:45.933Z,315.00
2018-06-10T07:08:46.123Z,331.88
2018-06-10T07:09:46.322Z,343.13
2018-06-10T07:10:46.414Z,354.38
2018-06-10T07:11:46.572Z,365.63
2018-06-10T07:12:46.785Z,371.25
2018-06-10T07:13:46.982Z,371.25
2018-06-10T07:14:47.102Z,376.88
2018-06-10T07:15:47.235Z,382.50
2018-06-10T07:16:47.494Z,382.50
2018-06-10T07:17:47.718Z,393.75
2018-06-10T07:18:47.779Z,405.00
2018-06-10T07:19:48.023Z,421.88
2018-06-10T07:20:48.325Z,438.75
2018-06-10T07:21:48.472Z,461.25
2018-06-10T07:22:48.676Z,483.75
2018-06-10T07:23:48.819Z,500.63
2018-06-10T07:24:49.015Z,517.50
2018-06-10T07:25:49.125Z,534.38
2018-06-10T07:26:49.249Z,540.00
2018-06-10T07:27:49.443Z,534.38
2018-06-10T07:28:49.609Z,523.13
2018-06-10T07:29:49.807Z,506.25
2018-06-10T07:30:49.934Z,495.00
2018-06-10T07:31:50.102Z,483.75
2018-06-10T07:32:50.345Z,472.50
2018-06-10T07:33:50.492Z,466.88
2018-06-10T07:34:50.735Z,466.88
2018-06-10T07:35:50.874Z,466.88
2018-06-10T07:36:51.128Z,478.13
2018-06-10T07:37:51.291Z,489.38
2018-06-10T07:38:51.463Z,500.63
2018-06-10T07:39:51.623Z,506.25
2018-06-10T07:40:51.777Z,511.88
2018-06-10T07:41:51.887Z,523.13
2018-06-10T07:42:52.077Z,528.75
2018-06-10T07:43:52.210Z,545.63
2018-06-10T07:44:52.457Z,568.13
2018-06-10T07:45:52.548Z,585.00
2018-06-10T07:46:52.791Z,601.88
2018-06-10T07:47:53.015Z,624.38
2018-06-10T07:48:53.190Z,641.25
2018-06-10T07:49:53.293Z,652.50
2018-06-10T07:50:53.554Z,663.75
2018-06-10T07:51:53.792Z,680.63
2018-06-10T07:52:53.721Z,680.63
2018-06-10T07:53:54.014Z,675.00
2018-06-10T07:54:54.122Z,675.00
2018-06-10T07:55:54.260Z,680.63
2018-06-10T07:56:54.515Z,675.00
2018-06-10T07:57:54.666Z,680.63
2018-06-10T07:58:54.740Z,691.88
2018-06-10T07:59:55.053Z,708.75
2018-06-10T08:00:55.196Z,720.00
2018-06-10T08:01:55.384Z,742.50
2018-06-10T08:02:55.612Z,765.00
2018-06-10T08:03:55.741Z,787.50
2018-06-10T08:04:55.946Z,804.38
2018-06-10T08:05:56.040Z,815.63
2018-06-10T08:06:56.305Z,821.25
2018-06-10T08:07:56.463Z,810.00
2018-06-10T08:08:56.582Z,793.13
2018-06-10T08:09:56.753Z,765.00
2018-06-10T08:10:56.899Z,725.63
2018-06-10T08:11:57.126Z,680.63
2018-06-10T08:12:57.215Z,613.13
2018-06-10T08:13:57.416Z,556.88
2018-06-10T08:14:57.615Z,495.00
2018-06-10T08:15:57.881Z,444.38
2018-06-10T08:16:58.025Z,405.00
2018-06-10T08:19:47.686Z,298.13
2018-06-10T08:20:51.217Z,270.00
2018-06-10T08:21:50.795Z,241.88
2018-06-10T08:22:50.735Z,225.00
2018-06-10T08:23:49.228Z,208.13
2018-06-10T08:24:46.739Z,196.88
2018-06-10T08:25:46.340Z,196.88
2018-06-10T08:26:46.428Z,202.50
2018-06-10T08:27:46.550Z,208.13
2018-06-10T08:28:46.787Z,213.75
2018-06-10T08:29:47.040Z,219.38
2018-06-10T08:30:47.165Z,219.38
2018-06-10T08:31:47.303Z,225.00
2018-06-10T08:32:47.326Z,230.63
2018-06-10T08:33:47.541Z,236.25
2018-06-10T08:34:47.796Z,253.13
2018-06-10T08:35:47.874Z,264.38
2018-06-10T08:36:48.104Z,275.63
2018-06-10T08:37:48.219Z,286.88
2018-06-10T08:38:48.418Z,298.13
2018-06-10T08:39:48.679Z,309.38
2018-06-10T08:40:48.829Z,320.63
2018-06-10T08:41:48.924Z,337.50
2018-06-10T08:42:49.289Z,348.75
2018-06-10T08:43:49.456Z,365.63
2018-06-10T08:44:49.552Z,382.50
2018-06-10T08:45:49.756Z,393.75
2018-06-10T08:46:49.865Z,393.75
2018-06-10T08:47:50.021Z,393.75
2018-06-10T08:48:50.131Z,393.75
2018-06-10T08:49:50.409Z,399.38
2018-06-10T08:50:50.612Z,405.00
2018-06-10T08:51:50.619Z,405.00
2018-06-10T08:52:50.932Z,399.38
2018-06-10T08:53:50.923Z,388.13
2018-06-10T08:54:51.235Z,376.88
2018-06-10T08:55:51.478Z,371.25
2018-06-10T08:56:51.601Z,371.25
2018-06-10T08:57:51.872Z,371.25
2018-06-10T08:58:51.970Z,371.25
2018-06-10T08:59:52.040Z,376.88
2018-06-10T09:00:52.222Z,388.13
2018-06-10T09:01:52.396Z,399.38
2018-06-10T09:02:52.583Z,410.63
2018-06-10T09:03:52.665Z,421.88
2018-06-10T09:04:52.896Z,438.75
2018-06-10T09:05:53.102Z,455.63
2018-06-10T09:06:53.341Z,483.75
2018-06-10T09:07:53.407Z,523.13
2018-06-10T09:08:53.829Z,556.88
2018-06-10T09:09:53.839Z,601.88
2018-06-10T09:10:53.988Z,646.88
2018-06-10T09:11:54.041Z,697.50
2018-06-10T09:12:54.233Z,748.13
2018-06-10T09:13:54.339Z,793.13
2018-06-10T09:14:54.673Z,843.75
2018-06-10T09:15:54.753Z,888.75
2018-06-10T09:16:54.980Z,916.88
2018-06-10T09:17:55.187Z,922.50
2018-06-10T09:18:55.325Z,911.25
2018-06-10T09:19:55.592Z,871.88
2018-06-10T09:20:55.664Z,821.25
2018-06-10T09:21:55.833Z,781.88
2018-06-10T09:22:55.979Z,759.38
2018-06-10T09:23:56.198Z,748.13
2018-06-10T09:24:56.371Z,748.13
2018-06-10T09:25:56.558Z,753.75
2018-06-10T09:26:56.690Z,759.38
2018-06-10T09:27:56.827Z,770.63
2018-06-10T09:28:57.046Z,787.50
2018-06-10T09:29:57.228Z,804.38
2018-06-10T09:30:57.462Z,815.63
2018-06-10T09:31:57.599Z,826.88
2018-06-10T09:32:57.735Z,843.75
2018-06-10T09:33:57.953Z,855.00
2018-06-10T09:34:58.143Z,871.88
2018-06-10T09:35:58.237Z,883.13
2018-06-10T09:36:58.455Z,888.75
2018-06-10T09:37:58.671Z,888.75
2018-06-10T09:38:58.819Z,877.50
2018-06-10T09:39:58.973Z,866.25
2018-06-10T09:40:59.161Z,843.75
2018-06-10T09:41:59.259Z,815.63
2018-06-10T09:42:59.515Z,798.75
2018-06-10T09:43:59.701Z,770.63
2018-06-10T09:44:59.992Z,748.13
2018-06-10T09:46:00.112Z,708.75
2018-06-10T09:47:00.672Z,697.50
2018-06-10T09:56:35.202Z,821.25
2018-06-10T09:57:32.832Z,883.13
2018-06-10T09:58:34.023Z,950.63
2018-06-10T09:59:34.158Z,1057.50
2018-06-10T10:00:31.805Z,1186.88
2018-06-10T10:01:31.933Z,1293.75
2018-06-10T10:02:32.086Z,1305.00
2018-06-10T10:03:32.269Z,1361.25
2018-06-10T10:04:32.672Z,1462.50
2018-06-10T10:05:32.912Z,2081.25
2018-06-10T10:06:32.986Z,1541.25
2018-06-10T10:11:15.009Z,1580.63
2018-06-10T10:12:05.321Z,1710.00
2018-06-10T10:13:16.235Z,1445.63
2018-06-10T10:14:13.140Z,1338.75
2018-06-10T10:16:19.018Z,1411.88
2018-06-10T10:17:09.747Z,1845.00
2018-06-10T10:18:04.618Z,1372.50
2018-06-10T10:19:04.984Z,1074.38
2018-06-10T11:26:32.384Z,2891.25
2018-06-10T11:27:29.467Z,3183.75
2018-06-10T11:33:26.716Z,3639.38
2018-06-10T11:38:26.458Z,3487.50
2018-06-10T11:41:37.682Z,3138.75
2018-06-10T11:42:22.909Z,3645.00
2018-06-10T14:30:16.651Z,3870.00
2018-06-10T14:31:01.729Z,3813.75
2018-06-10T14:36:47.043Z,888.75
2018-06-10T14:39:20.174Z,832.50
2018-06-10T14:40:51.758Z,810.00
2018-06-10T14:41:49.125Z,888.75
2018-06-10T14:42:57.085Z,3510.00
2018-06-10T14:43:57.507Z,3442.50
2018-06-10T14:44:52.545Z,3414.38
2018-06-10T14:45:56.934Z,826.88
2018-06-10T14:47:05.008Z,731.25
2018-06-10T14:48:17.912Z,1749.38
2018-06-10T14:48:49.977Z,3223.13
2018-06-10T14:50:49.521Z,3290.63
2018-06-10T14:51:49.667Z,3391.88
2018-06-10T14:52:49.566Z,3375.00
2018-06-10T14:53:47.409Z,3442.50
2018-06-10T14:54:47.759Z,3414.38
2018-06-10T14:55:49.246Z,3408.75
2018-06-10T14:56:47.558Z,3341.25
2018-06-10T14:57:50.615Z,1597.50
2018-06-10T14:58:51.291Z,3206.25
2018-06-10T15:49:40.607Z,2227.50
2018-06-10T15:50:44.822Z,2233.13
2018-06-10T15:52:12.200Z,1996.88
2018-06-10T15:55:23.840Z,669.38
2018-06-10T17:45:19.253Z,225.00
2018-06-10T17:47:34.271Z,225.00
2018-06-10T17:48:24.230Z,219.38
2018-06-10T17:49:25.769Z,219.38
2018-06-10T17:51:21.546Z,208.13
2018-06-10T17:52:23.490Z,202.50
2018-06-10T17:53:23.816Z,196.88
2018-06-10T17:54:22.371Z,191.25
2018-06-10T17:55:23.058Z,191.25
2018-06-10T17:56:21.872Z,185.63
2018-06-10T17:57:20.843Z,185.63
2018-06-10T17:58:19.900Z,180.00
2018-06-10T17:59:19.815Z,180.00
2018-06-10T18:00:20.888Z,174.38
2018-06-10T18:01:22.147Z,168.75
2018-06-10T18:02:21.526Z,163.13
2018-06-10T18:03:20.757Z,168.75
2018-06-10T18:04:22.012Z,168.75
2018-06-10T18:05:22.239Z,168.75
2018-06-10T18:06:22.306Z,168.75
2018-06-10T18:07:21.097Z,168.75
2018-06-10T18:08:21.392Z,168.75
2018-06-10T18:09:23.175Z,168.75
2018-06-10T18:10:21.702Z,168.75
2018-06-10T18:11:21.699Z,174.38
2018-06-10T18:12:21.683Z,174.38
2018-06-10T18:13:21.774Z,174.38
2018-06-10T18:14:23.216Z,180.00
2018-06-10T18:15:27.780Z,174.38
2018-06-10T18:16:22.530Z,174.38
2018-06-10T18:17:23.058Z,174.38
2018-06-10T18:18:24.467Z,168.75
2018-06-10T18:19:23.439Z,163.13
2018-06-10T18:20:23.628Z,163.13
2018-06-10T18:21:23.850Z,157.50
2018-06-10T18:22:24.572Z,157.50
2018-06-10T18:23:25.088Z,151.88
2018-06-10T18:24:26.075Z,146.25
2018-06-10T18:25:24.713Z,146.25
2018-06-10T18:26:26.497Z,146.25
2018-06-10T18:27:25.049Z,140.63
2018-06-10T18:28:24.387Z,140.63
2018-06-10T18:29:25.150Z,135.00
2018-06-10T18:30:24.606Z,135.00
2018-06-10T18:31:58.097Z,129.38
2018-06-10T18:33:26.042Z,123.75
2018-06-10T18:34:25.874Z,123.75
2018-06-10T18:35:25.827Z,123.75
2018-06-10T18:36:25.965Z,118.13
2018-06-10T18:37:26.424Z,118.13
2018-06-10T18:38:26.696Z,118.13
2018-06-10T18:39:26.692Z,118.13
2018-06-10T18:40:27.455Z,112.50
2018-06-10T18:41:29.019Z,112.50
2018-06-10T18:42:28.555Z,106.88
2018-06-10T18:43:28.069Z,101.25
2018-06-10T18:44:28.038Z,101.25
2018-06-10T18:45:30.721Z,95.63
2018-06-10T18:46:33.325Z,95.63
2018-06-10T18:47:32.712Z,95.63
2018-06-10T18:48:27.828Z,95.63
2018-06-10T18:49:33.463Z,95.63
2018-06-10T19:25:37.624Z,28.13
2018-06-10T19:26:20.256Z,28.13
2018-06-10T19:27:20.416Z,22.50
2018-06-10T19:28:21.343Z,22.50
2018-06-10T19:29:23.256Z,22.50
2018-06-10T19:30:22.072Z,22.50
2018-06-10T19:31:30.319Z,16.88
2018-06-10T19:33:01.509Z,16.88
2018-06-10T20:27:42.946Z,0.00
2018-06-10T20:28:44.358Z,0.00
2018-06-10T20:29:45.210Z,0.00
2018-06-10T20:30:44.609Z,0.00
2018-06-10T20:31:44.049Z,0.00
2018-06-10T20:32:45.395Z,0.00
2018-06-10T20:33:44.729Z,0.00
2018-06-10T20:34:46.114Z,0.00
2018-06-10T20:35:45.412Z,0.00
2018-06-10T20:37:45.320Z,0.00
2018-06-10T20:38:47.233Z,0.00
2018-06-10T20:39:46.382Z,0.00
2018-06-10T20:40:45.129Z,0.00
2018-06-10T20:41:43.808Z,0.00
2018-06-10T20:42:43.904Z,0.00
2018-06-10T20:43:43.521Z,0.00
2018-06-10T20:44:43.443Z,0.00
2018-06-10T20:45:43.851Z,0.00
2018-06-10T20:46:43.673Z,0.00
2018-06-10T20:47:44.240Z,0.00
2018-06-10T20:48:44.596Z,0.00
2018-06-10T20:53:25.965Z,0.00
2018-06-10T20:54:17.232Z,0.00
2018-06-10T20:55:01.889Z,0.00
2018-06-10T20:56:02.801Z,0.00
2018-06-10T20:57:02.965Z,0.00
2018-06-10T20:58:03.903Z,0.00
2018-06-10T20:59:12.544Z,0.00
2018-06-10T21:00:03.652Z,0.00
2018-06-10T21:01:05.235Z,0.00
2018-06-10T21:02:03.728Z,0.00
2018-06-10T21:03:06.175Z,0.00
2018-06-10T21:04:03.821Z,0.00
2018-06-10T21:05:02.030Z,0.00
2018-06-10T21:06:01.885Z,0.00
2018-06-10T21:07:02.143Z,0.00
2018-06-10T21:08:02.416Z,0.00
2018-06-10T21:09:02.141Z,0.00
